Time;durP1;ratioP1;P1;durP2;ratioP2;P2;SDS_P1;SDS_P2;PMS_P1;PMS_P2;Temp;Humidity;BMP_temperature;BMP_pressure;BME280_temperature;BME280_humidity;BME280_pressure;Samples;Min_cycle;Max_cycle;Signal;HPM_P1;HPM_P2
2023/09/23 00:01:58;;;;;;;0.10;0.10;;;;;;;;;;4805486;29;20058;-87
2023/09/23 00:04:24;;;;;;;0.10;0.10;;;;;;;;;;4805156;29;20451;-86
2023/09/23 00:06:51;;;;;;;0.10;0.10;;;;;;;;;;4805179;29;20121;-87
2023/09/23 00:09:18;;;;;;;0.10;0.10;;;;;;;;;;4805051;29;20122;-86
2023/09/23 00:11:44;;;;;;;0.10;0.10;;;;;;;;;;4804999;29;20066;-86
2023/09/23 00:14:10;;;;;;;0.10;0.10;;;;;;;;;;4804895;29;20415;-87
2023/09/23 00:16:36;;;;;;;0.10;0.10;;;;;;;;;;4805114;29;20058;-87
2023/09/23 00:19:02;;;;;;;0.10;0.10;;;;;;;;;;4805102;29;20110;-86
2023/09/23 00:21:28;;;;;;;0.10;0.10;;;;;;;;;;4805106;29;20403;-86
2023/09/23 00:23:57;;;;;;;0.10;0.10;;;;;;;;;;4804735;29;20518;-86
2023/09/23 00:26:26;;;;;;;0.10;0.10;;;;;;;;;;4804499;29;20098;-87
2023/09/23 00:28:52;;;;;;;0.10;0.10;;;;;;;;;;4788911;29;20062;-86
2023/09/23 00:31:19;;;;;;;0.10;0.10;;;;;;;;;;4804062;29;20051;-86
2023/09/23 00:33:45;;;;;;;0.10;0.10;;;;;;;;;;4803853;29;20106;-86
2023/09/23 00:36:11;;;;;;;0.10;0.10;;;;;;;;;;4804105;29;20051;-86
2023/09/23 00:38:37;;;;;;;0.10;0.10;;;;;;;;;;4803935;29;20084;-87
2023/09/23 00:41:04;;;;;;;0.10;0.10;;;;;;;;;;4803884;29;20085;-87
2023/09/23 00:43:33;;;;;;;0.10;0.10;;;;;;;;;;4803985;29;20413;-86
2023/09/23 00:45:59;;;;;;;0.10;0.10;;;;;;;;;;4803748;29;20062;-87
2023/09/23 00:48:25;;;;;;;0.10;0.10;;;;;;;;;;4803671;29;20082;-86
2023/09/23 00:50:52;;;;;;;0.10;0.10;;;;;;;;;;4803555;29;20093;-86
2023/09/23 00:53:18;;;;;;;0.38;0.38;;;;;;;;;;4803866;29;20046;-86
2023/09/23 00:55:51;;;;;;;0.10;0.10;;;;;;;;;;4818878;29;20061;-86
2023/09/23 00:58:20;;;;;;;0.20;0.20;;;;;;;;;;4803565;29;20055;-86
2023/09/23 01:00:46;;;;;;;0.10;0.10;;;;;;;;;;4803613;29;20456;-86
2023/09/23 01:03:12;;;;;;;0.10;0.10;;;;;;;;;;4803449;29;20408;-85
2023/09/23 01:05:39;;;;;;;0.10;0.10;;;;;;;;;;4788353;29;20551;-85
2023/09/23 01:08:07;;;;;;;0.38;0.17;;;;;;;;;;4803574;29;20125;-86
2023/09/23 01:10:33;;;;;;;0.10;0.10;;;;;;;;;;4818405;29;20580;-86
2023/09/23 01:12:59;;;;;;;0.10;0.10;;;;;;;;;;4803295;29;20499;-86
2023/09/23 01:15:28;;;;;;;0.10;0.10;;;;;;;;;;4803249;29;20051;-86
2023/09/23 01:17:54;;;;;;;0.10;0.10;;;;;;;;;;4788575;29;20139;-86
2023/09/23 01:20:25;;;;;;;0.10;0.10;;;;;;;;;;4803235;29;20086;-87
2023/09/23 01:22:57;;;;;;;0.10;0.10;;;;;;;;;;4803308;29;20058;-86
2023/09/23 01:25:24;;;;;;;0.10;0.10;;;;;;;;;;4768437;29;1043630;-86
2023/09/23 01:27:50;;;;;;;0.10;0.10;;;;;;;;;;4788933;29;20057;-86
2023/09/23 01:30:20;;;;;;;0.10;0.10;;;;;;;;;;4804167;29;20046;-86
2023/09/23 01:32:47;;;;;;;0.10;0.10;;;;;;;;;;4803761;29;20137;-86
2023/09/23 01:35:16;;;;;;;0.10;0.10;;;;;;;;;;4805124;29;20051;-86
2023/09/23 01:37:44;;;;;;;0.10;0.10;;;;;;;;;;4788861;29;20049;-87
2023/09/23 01:40:14;;;;;;;0.10;0.10;;;;;;;;;;4804026;29;20084;-87
2023/09/23 01:42:41;;;;;;;0.10;0.10;;;;;;;;;;4788983;29;20051;-86
2023/09/23 01:45:09;;;;;;;0.10;0.10;;;;;;;;;;4803726;29;20050;-86
2023/09/23 01:47:35;;;;;;;0.10;0.10;;;;;;;;;;4803761;29;20104;-86
2023/09/23 01:50:01;;;;;;;0.10;0.10;;;;;;;;;;4803738;29;20488;-86
2023/09/23 01:52:29;;;;;;;0.10;0.10;;;;;;;;;;4803604;29;20095;-86
2023/09/23 01:54:55;;;;;;;0.10;0.10;;;;;;;;;;4803641;29;20337;-87
2023/09/23 01:57:21;;;;;;;0.10;0.10;;;;;;;;;;4803611;29;20076;-86
2023/09/23 01:59:47;;;;;;;0.10;0.10;;;;;;;;;;4803654;29;20102;-86
2023/09/23 02:02:17;;;;;;;0.10;0.10;;;;;;;;;;4803651;29;20464;-86
2023/09/23 02:04:43;;;;;;;0.10;0.10;;;;;;;;;;4803755;29;20051;-86
2023/09/23 02:07:11;;;;;;;0.10;0.10;;;;;;;;;;4803707;29;20054;-87
2023/09/23 02:09:37;;;;;;;0.10;0.10;;;;;;;;;;4803743;29;20082;-86
2023/09/23 02:12:04;;;;;;;0.10;0.10;;;;;;;;;;4821050;29;20051;-87
2023/09/23 02:14:30;;;;;;;0.10;0.10;;;;;;;;;;4806938;29;20142;-87
2023/09/23 02:16:59;;;;;;;0.10;0.10;;;;;;;;;;4807331;29;20066;-87
2023/09/23 02:19:25;;;;;;;0.10;0.10;;;;;;;;;;4807120;29;20057;-86
2023/09/23 02:21:52;;;;;;;0.10;0.10;;;;;;;;;;4806882;29;20054;-87
2023/09/23 02:24:18;;;;;;;0.10;0.10;;;;;;;;;;4806793;29;20134;-86
2023/09/23 02:26:48;;;;;;;0.10;0.10;;;;;;;;;;4806740;29;20408;-87
2023/09/23 02:29:14;;;;;;;0.10;0.10;;;;;;;;;;4807192;29;20404;-87
2023/09/23 02:31:50;;;;;;;0.10;0.10;;;;;;;;;;4806960;29;20047;-87
2023/09/23 02:34:16;;;;;;;0.10;0.10;;;;;;;;;;4806841;29;20047;-86
2023/09/23 02:36:43;;;;;;;0.10;0.10;;;;;;;;;;4807004;29;20396;-86
2023/09/23 02:39:16;;;;;;;0.10;0.10;;;;;;;;;;4791410;29;20045;-86
2023/09/23 02:41:47;;;;;;;0.10;0.10;;;;;;;;;;4806767;29;20147;-85
2023/09/23 02:44:19;;;;;;;0.20;0.20;;;;;;;;;;4806840;29;20082;-86
2023/09/23 02:46:46;;;;;;;0.10;0.10;;;;;;;;;;4806881;29;20407;-86
2023/09/23 02:49:12;;;;;;;0.30;0.30;;;;;;;;;;4806553;29;20057;-86
2023/09/23 02:51:38;;;;;;;0.10;0.10;;;;;;;;;;4806285;29;20055;-87
2023/09/23 02:54:08;;;;;;;0.10;0.10;;;;;;;;;;4806176;29;20077;-87
2023/09/23 02:56:34;;;;;;;0.10;0.10;;;;;;;;;;4806360;29;20051;-87
2023/09/23 02:59:00;;;;;;;0.10;0.10;;;;;;;;;;4806339;29;20078;-86
2023/09/23 03:01:27;;;;;;;0.10;0.10;;;;;;;;;;4806232;29;20571;-86
2023/09/23 03:03:55;;;;;;;0.10;0.10;;;;;;;;;;4806181;29;20577;-86
2023/09/23 03:06:22;;;;;;;0.10;0.10;;;;;;;;;;4806003;29;20130;-86
2023/09/23 03:08:53;;;;;;;0.10;0.10;;;;;;;;;;4806387;29;20074;-86
2023/09/23 03:11:19;;;;;;;0.10;0.10;;;;;;;;;;4791081;29;20058;-86
2023/09/23 03:13:45;;;;;;;0.10;0.10;;;;;;;;;;4806324;29;20051;-86
2023/09/23 03:16:14;;;;;;;0.10;0.10;;;;;;;;;;4790878;29;20046;-86
2023/09/23 03:19:10;;;;;;;0.10;0.10;;;;;;;;;;4791000;29;20089;-87
2023/09/23 03:21:36;;;;;;;6.50;0.40;;;;;;;;;;4805898;29;20050;-86
2023/09/23 03:24:02;;;;;;;0.10;0.10;;;;;;;;;;4804873;29;20050;-87
2023/09/23 03:26:28;;;;;;;0.10;0.10;;;;;;;;;;4807399;29;20062;-86
2023/09/23 03:28:54;;;;;;;0.10;0.10;;;;;;;;;;4805746;29;20055;-87
2023/09/23 03:31:20;;;;;;;0.10;0.10;;;;;;;;;;4805476;29;20047;-87
2023/09/23 03:33:46;;;;;;;0.10;0.10;;;;;;;;;;4807172;29;20047;-87
2023/09/23 03:36:16;;;;;;;0.10;0.10;;;;;;;;;;4805691;29;20556;-87
2023/09/23 03:38:42;;;;;;;0.10;0.10;;;;;;;;;;4820658;29;20420;-87
2023/09/23 03:41:08;;;;;;;0.10;0.10;;;;;;;;;;4805861;29;20259;-87
2023/09/23 03:43:34;;;;;;;0.10;0.10;;;;;;;;;;4790399;29;20046;-87
2023/09/23 03:46:00;;;;;;;0.10;0.10;;;;;;;;;;4805388;29;20051;-87
2023/09/23 03:48:26;;;;;;;0.10;0.10;;;;;;;;;;4805660;29;20130;-87
2023/09/23 03:50:52;;;;;;;0.10;0.10;;;;;;;;;;4790335;29;20050;-87
2023/09/23 03:53:21;;;;;;;0.10;0.10;;;;;;;;;;4805491;29;20046;-87
2023/09/23 03:55:49;;;;;;;0.10;0.10;;;;;;;;;;4790335;29;20046;-87
2023/09/23 03:58:17;;;;;;;0.40;0.40;;;;;;;;;;4805390;29;20073;-87
2023/09/23 04:00:43;;;;;;;0.10;0.10;;;;;;;;;;4805164;29;20050;-87
2023/09/23 04:03:10;;;;;;;0.10;0.10;;;;;;;;;;4805173;29;20115;-87
2023/09/23 04:05:36;;;;;;;0.10;0.10;;;;;;;;;;4820258;29;20135;-87
2023/09/23 04:08:02;;;;;;;0.10;0.10;;;;;;;;;;4805294;29;20138;-87
2023/09/23 04:10:28;;;;;;;0.10;0.10;;;;;;;;;;4790248;29;20061;-87
2023/09/23 04:12:54;;;;;;;0.10;0.10;;;;;;;;;;4790003;29;20414;-86
2023/09/23 04:15:26;;;;;;;0.10;0.10;;;;;;;;;;4805019;29;20491;-87
2023/09/23 04:17:52;;;;;;;0.20;0.20;;;;;;;;;;4819952;29;20062;-87
2023/09/23 04:20:18;;;;;;;0.10;0.10;;;;;;;;;;4805053;29;20507;-87
2023/09/23 04:22:46;;;;;;;0.10;0.10;;;;;;;;;;4804823;29;20506;-87
2023/09/23 04:25:13;;;;;;;0.10;0.10;;;;;;;;;;4789665;29;20133;-86
2023/09/23 04:27:39;;;;;;;0.10;0.10;;;;;;;;;;4804532;29;20062;-86
2023/09/23 04:30:11;;;;;;;0.10;0.10;;;;;;;;;;4804778;29;20057;-86
2023/09/23 04:32:40;;;;;;;0.10;0.10;;;;;;;;;;4804778;29;20050;-86
2023/09/23 04:35:07;;;;;;;0.10;0.10;;;;;;;;;;4804105;29;20051;-87
2023/09/23 04:37:37;;;;;;;0.10;0.10;;;;;;;;;;4804724;29;20053;-86
2023/09/23 04:40:06;;;;;;;0.20;0.20;;;;;;;;;;4805715;29;20058;-87
2023/09/23 04:42:32;;;;;;;0.10;0.10;;;;;;;;;;4789564;29;20054;-86
2023/09/23 04:44:58;;;;;;;0.10;0.10;;;;;;;;;;4789801;29;20047;-86
2023/09/23 04:47:24;;;;;;;0.10;0.10;;;;;;;;;;4804541;29;20149;-86
2023/09/23 04:49:50;;;;;;;0.10;0.10;;;;;;;;;;4804751;29;20100;-86
2023/09/23 04:52:16;;;;;;;0.10;0.10;;;;;;;;;;4789338;29;20488;-87
2023/09/23 04:54:43;;;;;;;0.10;0.10;;;;;;;;;;4804081;29;20088;-86
2023/09/23 04:57:09;;;;;;;0.10;0.10;;;;;;;;;;4789311;29;20058;-86
2023/09/23 04:59:35;;;;;;;0.10;0.10;;;;;;;;;;4804287;29;20042;-86
2023/09/23 05:02:01;;;;;;;0.10;0.10;;;;;;;;;;4804215;29;20134;-86
2023/09/23 05:04:28;;;;;;;0.10;0.10;;;;;;;;;;4804031;29;20129;-86
2023/09/23 05:06:56;;;;;;;0.10;0.10;;;;;;;;;;4789102;29;20142;-86
2023/09/23 05:09:25;;;;;;;0.10;0.10;;;;;;;;;;4819128;29;20075;-86
2023/09/23 05:11:51;;;;;;;0.20;0.20;;;;;;;;;;4804231;29;20136;-86
2023/09/23 05:14:17;;;;;;;0.10;0.10;;;;;;;;;;4819288;29;20047;-86
2023/09/23 05:16:43;;;;;;;0.10;0.10;;;;;;;;;;4804003;29;20126;-86
2023/09/23 05:19:11;;;;;;;0.10;0.10;;;;;;;;;;4819242;29;20092;-86
2023/09/23 05:21:37;;;;;;;0.10;0.10;;;;;;;;;;4803962;29;20058;-86
2023/09/23 05:24:04;;;;;;;0.10;0.10;;;;;;;;;;4804084;29;20074;-87
2023/09/23 05:26:33;;;;;;;0.10;0.10;;;;;;;;;;4803773;29;20063;-87
2023/09/23 05:28:59;;;;;;;0.10;0.10;;;;;;;;;;4788834;29;20054;-86
2023/09/23 05:31:25;;;;;;;0.10;0.10;;;;;;;;;;4804241;29;20580;-88
2023/09/23 05:33:51;;;;;;;0.10;0.10;;;;;;;;;;4803867;29;20491;-86
2023/09/23 05:36:17;;;;;;;0.10;0.10;;;;;;;;;;4803775;29;20047;-86
2023/09/23 05:38:43;;;;;;;0.10;0.10;;;;;;;;;;4803828;29;20046;-86
2023/09/23 05:41:09;;;;;;;0.10;0.10;;;;;;;;;;4803801;29;20080;-86
2023/09/23 05:43:35;;;;;;;0.38;0.38;;;;;;;;;;4804011;29;20047;-85
2023/09/23 05:46:05;;;;;;;0.10;0.10;;;;;;;;;;4805102;29;20055;-85
2023/09/23 05:48:32;;;;;;;0.10;0.10;;;;;;;;;;4807529;29;20050;-86
2023/09/23 05:51:05;;;;;;;0.10;0.10;;;;;;;;;;4807427;29;20403;-85
2023/09/23 05:53:32;;;;;;;0.10;0.10;;;;;;;;;;4807699;29;20043;-85
2023/09/23 05:55:58;;;;;;;0.10;0.10;;;;;;;;;;4807440;29;20051;-86
2023/09/23 05:58:24;;;;;;;0.20;0.20;;;;;;;;;;4807475;29;20058;-86
2023/09/23 06:00:51;;;;;;;0.10;0.10;;;;;;;;;;4792273;29;20050;-86
2023/09/23 06:03:17;;;;;;;0.10;0.10;;;;;;;;;;4807209;29;20176;-86
2023/09/23 06:05:44;;;;;;;0.10;0.10;;;;;;;;;;4807162;29;20047;-86
2023/09/23 06:08:10;;;;;;;0.10;0.10;;;;;;;;;;4807549;29;20376;-87
2023/09/23 06:10:36;;;;;;;0.10;0.10;;;;;;;;;;4807197;29;20135;-86
2023/09/23 06:13:03;;;;;;;0.10;0.10;;;;;;;;;;4807050;29;20528;-86
2023/09/23 06:15:29;;;;;;;0.15;0.15;;;;;;;;;;4807099;29;20043;-86
2023/09/23 06:17:55;;;;;;;0.10;0.10;;;;;;;;;;4807072;29;20046;-87
2023/09/23 06:20:21;;;;;;;0.10;0.10;;;;;;;;;;4791836;29;20046;-87
2023/09/23 06:22:47;;;;;;;0.10;0.10;;;;;;;;;;4806904;29;20047;-87
2023/09/23 06:25:13;;;;;;;0.20;0.20;;;;;;;;;;4806823;29;20082;-87
2023/09/23 06:27:39;;;;;;;0.10;0.10;;;;;;;;;;4791670;29;20145;-87
2023/09/23 06:30:06;;;;;;;0.10;0.10;;;;;;;;;;4806844;29;20130;-87
2023/09/23 06:32:32;;;;;;;0.32;0.10;;;;;;;;;;4791589;29;20483;-86
2023/09/23 06:34:58;;;;;;;0.10;0.10;;;;;;;;;;4806830;29;20264;-87
2023/09/23 06:37:27;;;;;;;0.40;0.40;;;;;;;;;;4807983;29;20038;-87
2023/09/23 06:39:53;;;;;;;0.20;0.20;;;;;;;;;;4806639;29;20126;-87
2023/09/23 06:42:19;;;;;;;0.10;0.10;;;;;;;;;;4806629;29;20580;-86
2023/09/23 06:44:45;;;;;;;0.20;0.20;;;;;;;;;;4806747;29;20272;-87
2023/09/23 06:47:11;;;;;;;0.10;0.10;;;;;;;;;;4806480;29;20107;-87
2023/09/23 06:49:38;;;;;;;0.10;0.10;;;;;;;;;;4791448;29;20061;-89
2023/09/23 06:52:05;;;;;;;0.10;0.10;;;;;;;;;;4806476;29;20062;-87
2023/09/23 06:54:31;;;;;;;0.10;0.10;;;;;;;;;;4806564;29;20496;-87
2023/09/23 06:56:58;;;;;;;0.10;0.10;;;;;;;;;;4806239;29;20047;-86
2023/09/23 06:59:24;;;;;;;0.10;0.10;;;;;;;;;;4791560;29;20392;-86
2023/09/23 07:01:49;;;;;;;0.17;0.17;;;;;;;;;;4806195;29;20054;-86
2023/09/23 07:04:15;;;;;;;0.10;0.10;;;;;;;;;;4791144;29;20467;-89
2023/09/23 07:06:41;;;;;;;0.63;0.57;;;;;;;;;;4806230;29;20047;-89
2023/09/23 07:09:07;;;;;;;0.10;0.10;;;;;;;;;;4808121;29;20121;-89
2023/09/23 07:11:33;;;;;;;0.10;0.10;;;;;;;;;;4839546;29;20046;-90
2023/09/23 07:14:00;;;;;;;0.10;0.10;;;;;;;;;;4794273;29;20042;-89
2023/09/23 07:16:27;;;;;;;0.10;0.10;;;;;;;;;;4824166;29;20043;-92
2023/09/23 07:18:53;;;;;;;0.28;0.28;;;;;;;;;;4794181;29;20042;-90
2023/09/23 07:21:19;;;;;;;0.10;0.10;;;;;;;;;;4809126;29;20058;-89
2023/09/23 07:23:45;;;;;;;0.20;0.20;;;;;;;;;;4808789;29;20057;-88
2023/09/23 07:26:18;;;;;;;0.10;0.10;;;;;;;;;;4823680;29;20066;-89
2023/09/23 07:28:44;;;;;;;0.10;0.10;;;;;;;;;;4794323;29;20516;-88
2023/09/23 07:31:10;;;;;;;0.15;0.15;;;;;;;;;;4823658;29;20086;-89
2023/09/23 07:33:36;;;;;;;0.10;0.10;;;;;;;;;;4832590;29;20522;-88
2023/09/23 07:36:09;;;;;;;0.10;0.10;;;;;;;;;;4838807;29;20038;-88
2023/09/23 07:38:35;;;;;;;0.10;0.10;;;;;;;;;;4824021;29;20050;-88
2023/09/23 07:41:02;;;;;;;0.10;0.10;;;;;;;;;;4805603;29;20563;-88
2023/09/23 07:43:28;;;;;;;0.10;0.10;;;;;;;;;;4776059;29;20093;-89
2023/09/23 07:45:54;;;;;;;0.10;0.10;;;;;;;;;;4820251;29;20038;-89
2023/09/23 07:48:20;;;;;;;0.10;0.10;;;;;;;;;;4823800;29;20050;-89
2023/09/23 07:50:46;;;;;;;0.10;0.10;;;;;;;;;;4800329;29;20398;-87
2023/09/23 07:53:12;;;;;;;0.10;0.10;;;;;;;;;;4817610;29;20057;-87
2023/09/23 07:55:38;;;;;;;0.10;0.10;;;;;;;;;;4822940;29;20043;-87
2023/09/23 07:58:05;;;;;;;0.10;0.10;;;;;;;;;;4823317;29;20452;-88
2023/09/23 08:00:31;;;;;;;0.10;0.10;;;;;;;;;;4808691;29;20077;-87
2023/09/23 08:02:56;;;;;;;0.10;0.10;;;;;;;;;;4823680;29;20092;-87
2023/09/23 08:05:23;;;;;;;0.10;0.10;;;;;;;;;;4824335;29;20050;-87
2023/09/23 08:07:51;;;;;;;0.10;0.10;;;;;;;;;;4824405;29;20105;-87
2023/09/23 08:10:17;;;;;;;0.20;0.20;;;;;;;;;;4792695;29;20050;-87
2023/09/23 08:12:43;;;;;;;0.10;0.10;;;;;;;;;;4808192;29;20092;-87
2023/09/23 08:15:11;;;;;;;0.10;0.10;;;;;;;;;;4823021;29;20050;-87
2023/09/23 08:17:38;;;;;;;0.10;0.10;;;;;;;;;;4807999;29;20057;-87
2023/09/23 08:20:11;;;;;;;0.10;0.10;;;;;;;;;;4805063;29;20099;-87
2023/09/23 08:22:40;;;;;;;0.10;0.10;;;;;;;;;;4805284;29;20084;-87
2023/09/23 08:25:06;;;;;;;0.10;0.10;;;;;;;;;;4789341;29;20055;-88
2023/09/23 08:27:32;;;;;;;0.10;0.10;;;;;;;;;;4790038;29;20063;-87
2023/09/23 08:29:58;;;;;;;0.10;0.10;;;;;;;;;;4810015;29;20049;-88
2023/09/23 08:32:24;;;;;;;0.10;0.10;;;;;;;;;;4838011;29;20053;-88
2023/09/23 08:34:50;;;;;;;0.10;0.10;;;;;;;;;;4838130;29;20099;-87
2023/09/23 08:37:16;;;;;;;0.10;0.10;;;;;;;;;;4807773;29;20125;-88
2023/09/23 08:39:44;;;;;;;0.10;0.10;;;;;;;;;;4807578;29;20087;-89
2023/09/23 08:42:10;;;;;;;0.10;0.10;;;;;;;;;;4807827;29;20050;-85
2023/09/23 08:44:36;;;;;;;0.10;0.10;;;;;;;;;;4807493;29;20065;-85
2023/09/23 08:47:02;;;;;;;0.15;0.15;;;;;;;;;;4807627;29;20050;-85
2023/09/23 08:49:27;;;;;;;0.10;0.10;;;;;;;;;;4808018;29;20054;-85
2023/09/23 08:51:57;;;;;;;0.10;0.10;;;;;;;;;;4807761;29;20107;-85
2023/09/23 08:54:25;;;;;;;0.10;0.10;;;;;;;;;;4792956;29;20042;-85
2023/09/23 08:56:52;;;;;;;0.20;0.20;;;;;;;;;;4808135;29;20046;-85
2023/09/23 08:59:18;;;;;;;0.20;0.20;;;;;;;;;;4838091;29;20073;-87
2023/09/23 09:01:44;;;;;;;0.10;0.10;;;;;;;;;;4807591;29;20050;-87
2023/09/23 09:04:14;;;;;;;0.10;0.10;;;;;;;;;;4807791;29;20459;-87
2023/09/23 09:06:47;;;;;;;0.10;0.10;;;;;;;;;;4837928;29;20062;-87
2023/09/23 09:09:13;;;;;;;0.15;0.15;;;;;;;;;;4837784;29;20046;-88
2023/09/23 09:11:40;;;;;;;0.10;0.10;;;;;;;;;;4837689;29;20551;-89
2023/09/23 09:14:07;;;;;;;0.10;0.10;;;;;;;;;;4838024;29;20395;-88
2023/09/23 09:16:33;;;;;;;0.20;0.20;;;;;;;;;;4793120;29;20068;-89
2023/09/23 09:18:59;;;;;;;0.20;0.20;;;;;;;;;;4807477;29;20555;-90
2023/09/23 09:21:26;;;;;;;0.13;0.13;;;;;;;;;;4822574;29;20109;-89
2023/09/23 09:23:53;;;;;;;0.38;0.22;;;;;;;;;;4807408;29;20050;-88
2023/09/23 09:26:21;;;;;;;0.10;0.10;;;;;;;;;;4837540;29;20347;-88
2023/09/23 09:28:47;;;;;;;0.10;0.10;;;;;;;;;;4807606;29;20062;-88
2023/09/23 09:31:13;;;;;;;0.10;0.10;;;;;;;;;;4807107;29;20061;-87
2023/09/23 09:33:40;;;;;;;0.10;0.10;;;;;;;;;;4807182;29;20551;-88
2023/09/23 09:36:07;;;;;;;0.20;0.20;;;;;;;;;;4807663;29;20470;-87
2023/09/23 09:38:33;;;;;;;0.20;0.20;;;;;;;;;;4807358;29;20271;-87
2023/09/23 09:41:03;;;;;;;0.10;0.10;;;;;;;;;;4837328;29;20046;-87
2023/09/23 09:43:31;;;;;;;0.20;0.20;;;;;;;;;;4807389;29;20518;-89
2023/09/23 09:45:58;;;;;;;0.10;0.10;;;;;;;;;;4807365;29;20083;-88
2023/09/23 09:48:28;;;;;;;0.10;0.10;;;;;;;;;;4807138;29;20114;-87
2023/09/23 09:50:54;;;;;;;0.10;0.10;;;;;;;;;;4837663;29;20103;-88
2023/09/23 09:53:20;;;;;;;0.20;0.20;;;;;;;;;;4803339;29;20133;-87
2023/09/23 09:55:46;;;;;;;0.10;0.10;;;;;;;;;;4821852;29;20155;-86
2023/09/23 09:58:12;;;;;;;0.10;0.10;;;;;;;;;;4803739;29;20384;-87
2023/09/23 10:00:43;;;;;;;0.20;0.20;;;;;;;;;;4774819;29;20066;-89
2023/09/23 10:03:11;;;;;;;0.20;0.20;;;;;;;;;;4804129;29;20050;-90
2023/09/23 10:05:49;;;;;;;0.10;0.10;;;;;;;;;;4823317;29;20051;-90
2023/09/23 10:08:19;;;;;;;0.10;0.10;;;;;;;;;;4792088;29;20042;-88
2023/09/23 10:10:49;;;;;;;0.10;0.10;;;;;;;;;;4803754;29;20050;-88
2023/09/23 10:13:16;;;;;;;0.20;0.20;;;;;;;;;;4788752;29;20055;-89
2023/09/23 10:15:43;;;;;;;0.15;0.15;;;;;;;;;;4799358;29;20119;-88
2023/09/23 10:18:13;;;;;;;0.20;0.20;;;;;;;;;;4803679;29;20043;-88
2023/09/23 10:20:43;;;;;;;0.10;0.10;;;;;;;;;;4798703;29;20046;-88
2023/09/23 10:23:10;;;;;;;0.10;0.10;;;;;;;;;;4803641;29;20507;-88
2023/09/23 10:25:36;;;;;;;0.10;0.10;;;;;;;;;;4816128;29;20043;-88
2023/09/23 10:28:04;;;;;;;0.10;0.10;;;;;;;;;;4806517;29;20047;-88
2023/09/23 10:30:30;;;;;;;0.10;0.10;;;;;;;;;;4803850;29;20195;-88
2023/09/23 10:32:56;;;;;;;0.17;0.17;;;;;;;;;;4790823;29;20050;-87
2023/09/23 10:35:23;;;;;;;0.20;0.20;;;;;;;;;;4798941;29;20408;-87
2023/09/23 10:37:49;;;;;;;0.10;0.10;;;;;;;;;;4792084;29;20043;-87
2023/09/23 10:40:17;;;;;;;0.10;0.10;;;;;;;;;;4815893;29;20578;-87
2023/09/23 10:42:46;;;;;;;0.10;0.10;;;;;;;;;;4824527;29;20522;-87
2023/09/23 10:45:13;;;;;;;0.10;0.10;;;;;;;;;;4824391;29;20051;-87
2023/09/23 10:47:39;;;;;;;0.15;0.15;;;;;;;;;;4809798;29;20053;-87
2023/09/23 10:50:05;;;;;;;0.13;0.13;;;;;;;;;;4806432;29;20055;-87
2023/09/23 10:52:31;;;;;;;0.10;0.10;;;;;;;;;;4791711;29;20051;-87
2023/09/23 10:55:00;;;;;;;0.10;0.10;;;;;;;;;;4797226;29;20487;-87
2023/09/23 10:57:27;;;;;;;0.10;0.10;;;;;;;;;;4825257;29;20046;-87
2023/09/23 10:59:53;;;;;;;0.10;0.10;;;;;;;;;;4809680;29;20042;-87
2023/09/23 11:02:28;;;;;;;0.20;0.20;;;;;;;;;;4809205;29;20133;-87
2023/09/23 11:04:55;;;;;;;0.10;0.10;;;;;;;;;;4824793;29;20461;-87
2023/09/23 11:07:21;;;;;;;0.10;0.10;;;;;;;;;;4809409;29;20466;-86
2023/09/23 11:09:47;;;;;;;0.10;0.10;;;;;;;;;;4824424;29;20091;-88
2023/09/23 11:12:13;;;;;;;0.10;0.10;;;;;;;;;;4809198;29;20054;-87
2023/09/23 11:14:46;;;;;;;0.20;0.20;;;;;;;;;;4809511;29;20053;-88
2023/09/23 11:17:11;;;;;;;;;;;;;;;;;;4809788;29;20111;-90
2023/09/23 11:19:37;;;;;;;0.10;0.10;;;;;;;;;;4822782;29;20385;-90
2023/09/23 11:22:05;;;;;;;0.10;0.10;;;;;;;;;;4808915;29;20058;-91
2023/09/23 11:24:38;;;;;;;0.10;0.10;;;;;;;;;;4809111;29;20133;-89
2023/09/23 11:27:07;;;;;;;0.10;0.10;;;;;;;;;;4808857;29;20068;-90
2023/09/23 11:29:33;;;;;;;0.10;0.10;;;;;;;;;;4809207;29;20050;-90
2023/09/23 11:31:59;;;;;;;0.10;0.10;;;;;;;;;;4808739;29;20043;-90
2023/09/23 11:34:25;;;;;;;0.10;0.10;;;;;;;;;;4808953;29;20054;-90
2023/09/23 11:36:51;;;;;;;0.13;0.13;;;;;;;;;;4808633;29;20065;-90
2023/09/23 11:39:17;;;;;;;0.17;0.17;;;;;;;;;;4823924;29;20093;-90
2023/09/23 11:41:43;;;;;;;0.10;0.10;;;;;;;;;;4809090;29;20046;-91
2023/09/23 11:44:09;;;;;;;0.20;0.20;;;;;;;;;;4822843;29;20058;-91
2023/09/23 11:46:36;;;;;;;0.10;0.10;;;;;;;;;;4808579;29;20038;-89
2023/09/23 11:49:02;;;;;;;0.10;0.10;;;;;;;;;;4808988;29;20042;-88
2023/09/23 11:51:28;;;;;;;0.10;0.10;;;;;;;;;;4823720;29;20127;-88
2023/09/23 11:53:54;;;;;;;0.10;0.10;;;;;;;;;;4824124;29;20038;-88
2023/09/23 11:56:20;;;;;;;0.10;0.10;;;;;;;;;;4808632;29;20050;-88
2023/09/23 11:58:46;;;;;;;0.10;0.10;;;;;;;;;;4808600;29;20131;-88
2023/09/23 12:01:12;;;;;;;0.10;0.10;;;;;;;;;;4808776;29;20050;-88
2023/09/23 12:03:38;;;;;;;0.20;0.20;;;;;;;;;;4808358;29;20352;-88
2023/09/23 12:06:04;;;;;;;0.10;0.10;;;;;;;;;;4823518;29;20182;-88
2023/09/23 12:08:33;;;;;;;0.10;0.10;;;;;;;;;;4823460;29;20046;-88
2023/09/23 12:11:00;;;;;;;0.20;0.20;;;;;;;;;;4808683;29;20075;-88
2023/09/23 12:13:26;;;;;;;0.20;0.20;;;;;;;;;;4808316;29;20058;-88
2023/09/23 12:15:52;;;;;;;0.15;0.15;;;;;;;;;;4823172;29;20047;-88
2023/09/23 12:18:18;;;;;;;0.15;0.15;;;;;;;;;;4808166;29;20045;-88
2023/09/23 12:20:44;;;;;;;0.10;0.10;;;;;;;;;;4823140;29;20403;-87
2023/09/23 12:23:13;;;;;;;0.10;0.10;;;;;;;;;;4808236;29;20057;-87
2023/09/23 12:25:39;;;;;;;0.20;0.20;;;;;;;;;;4808108;29;20049;-88
2023/09/23 12:28:05;;;;;;;0.10;0.10;;;;;;;;;;4808163;29;20106;-88
2023/09/23 12:30:31;;;;;;;0.10;0.10;;;;;;;;;;4808036;29;20049;-87
2023/09/23 12:32:57;;;;;;;0.10;0.10;;;;;;;;;;4807880;29;20046;-88
2023/09/23 12:35:23;;;;;;;0.10;0.10;;;;;;;;;;4807842;29;20039;-88
2023/09/23 12:37:49;;;;;;;0.20;0.20;;;;;;;;;;4823005;29;20042;-88
2023/09/23 12:40:15;;;;;;;0.10;0.10;;;;;;;;;;4823378;29;20197;-89
2023/09/23 12:42:41;;;;;;;0.10;0.10;;;;;;;;;;4807871;29;20502;-88
2023/09/23 12:45:07;;;;;;;0.15;0.15;;;;;;;;;;4807701;29;20050;-90
2023/09/23 12:47:33;;;;;;;0.10;0.10;;;;;;;;;;4807566;29;20460;-87
2023/09/23 12:49:59;;;;;;;0.10;0.10;;;;;;;;;;4808045;29;20050;-87
2023/09/23 12:52:25;;;;;;;0.10;0.10;;;;;;;;;;4822948;29;20474;-87
2023/09/23 12:54:51;;;;;;;0.20;0.20;;;;;;;;;;4807284;29;20403;-87
2023/09/23 12:57:17;;;;;;;0.20;0.20;;;;;;;;;;4807553;29;20046;-86
2023/09/23 12:59:43;;;;;;;0.10;0.10;;;;;;;;;;4822660;29;20506;-87
2023/09/23 13:02:09;;;;;;;0.10;0.10;;;;;;;;;;4807384;29;20436;-89
2023/09/23 13:04:35;;;;;;;0.10;0.10;;;;;;;;;;4807307;29;20398;-88
2023/09/23 13:07:01;;;;;;;0.20;0.20;;;;;;;;;;4807396;29;20106;-92
2023/09/23 13:09:27;;;;;;;0.10;0.10;;;;;;;;;;4807345;29;20053;-90
2023/09/23 13:11:53;;;;;;;0.10;0.10;;;;;;;;;;4807224;29;20046;-91
2023/09/23 13:14:21;;;;;;;0.10;0.10;;;;;;;;;;4807998;29;20050;-90
2023/09/23 13:16:47;;;;;;;0.10;0.10;;;;;;;;;;4807328;29;20065;-90
2023/09/23 13:19:13;;;;;;;0.10;0.10;;;;;;;;;;4807290;29;20475;-90
2023/09/23 13:21:39;;;;;;;0.10;0.10;;;;;;;;;;4807362;29;20047;-90
2023/09/23 13:24:05;;;;;;;0.10;0.10;;;;;;;;;;4807316;29;20050;-90
2023/09/23 13:26:32;;;;;;;0.10;0.10;;;;;;;;;;4806933;29;20518;-89
2023/09/23 13:28:58;;;;;;;0.10;0.10;;;;;;;;;;4807236;29;20122;-90
2023/09/23 13:31:24;;;;;;;0.20;0.20;;;;;;;;;;4807115;29;20535;-87
2023/09/23 13:33:50;;;;;;;0.10;0.10;;;;;;;;;;4822329;29;20133;-89
2023/09/23 13:36:16;;;;;;;0.10;0.10;;;;;;;;;;4807168;29;20051;-87
2023/09/23 13:38:42;;;;;;;0.10;0.10;;;;;;;;;;4822525;29;20059;-87
2023/09/23 13:41:08;;;;;;;0.10;0.10;;;;;;;;;;4807078;29;20081;-88
2023/09/23 13:43:34;;;;;;;0.10;0.10;;;;;;;;;;4821887;29;20133;-86
2023/09/23 13:46:00;;;;;;;0.10;0.10;;;;;;;;;;4806803;29;20125;-86
2023/09/23 13:48:26;;;;;;;0.10;0.10;;;;;;;;;;4822374;29;20042;-86
2023/09/23 13:50:52;;;;;;;0.10;0.10;;;;;;;;;;4806982;29;20052;-86
2023/09/23 13:53:18;;;;;;;0.10;0.10;;;;;;;;;;4822172;29;20050;-86
2023/09/23 13:55:43;;;;;;;0.10;0.10;;;;;;;;;;4806635;29;20406;-91
2023/09/23 13:58:10;;;;;;;0.10;0.10;;;;;;;;;;4791998;29;20050;-88
2023/09/23 14:00:35;;;;;;;0.10;0.10;;;;;;;;;;4807025;29;20086;-88
2023/09/23 14:03:01;;;;;;;0.10;0.10;;;;;;;;;;4806906;29;20042;-89
2023/09/23 14:05:28;;;;;;;0.10;0.10;;;;;;;;;;4806858;29;20385;-87
2023/09/23 14:07:54;;;;;;;0.10;0.10;;;;;;;;;;4824433;29;20069;-87
2023/09/23 14:10:21;;;;;;;0.10;0.10;;;;;;;;;;4810469;29;20050;-87
2023/09/23 14:12:47;;;;;;;0.10;0.10;;;;;;;;;;4825224;29;20051;-87
2023/09/23 14:15:13;;;;;;;0.10;0.10;;;;;;;;;;4825124;29;20098;-87
2023/09/23 14:17:39;;;;;;;0.10;0.10;;;;;;;;;;4810558;29;20483;-87
2023/09/23 14:20:09;;;;;;;0.30;0.30;;;;;;;;;;4810379;29;20554;-87
2023/09/23 14:22:35;;;;;;;0.10;0.10;;;;;;;;;;4825388;29;20054;-87
2023/09/23 14:25:10;;;;;;;0.20;0.20;;;;;;;;;;4826362;29;20514;-87
2023/09/23 14:27:36;;;;;;;0.10;0.10;;;;;;;;;;4795145;29;20062;-87
2023/09/23 14:30:02;;;;;;;0.20;0.20;;;;;;;;;;4810328;29;20433;-87
2023/09/23 14:32:28;;;;;;;0.10;0.10;;;;;;;;;;4824895;29;20492;-87
2023/09/23 14:34:54;;;;;;;0.10;0.10;;;;;;;;;;4824935;29;20053;-85
2023/09/23 14:37:20;;;;;;;0.10;0.10;;;;;;;;;;4825220;29;20517;-86
2023/09/23 14:39:46;;;;;;;0.10;0.10;;;;;;;;;;4824441;29;20479;-87
2023/09/23 14:42:13;;;;;;;0.10;0.10;;;;;;;;;;4809463;29;20073;-87